sensor_id;sensor_type;location;lat;lon;timestamp;P1;durP1;ratioP1;P2;durP2;ratioP2
67164;SDS011;54093;50.014;19.984;2024-02-28T00:01:05;22.27;;;12.98;;
67164;SDS011;54093;50.014;19.984;2024-02-28T00:10:38;28.55;;;11.82;;
67164;SDS011;54093;50.014;19.984;2024-02-28T00:19:59;20.67;;;11.32;;
67164;SDS011;54093;50.014;19.984;2024-02-28T00:29:20;12.98;;;9.02;;
67164;SDS011;54093;50.014;19.984;2024-02-28T00:38:41;18.27;;;9.95;;
67164;SDS011;54093;50.014;19.984;2024-02-28T00:48:02;19.27;;;9.48;;
67164;SDS011;54093;50.014;19.984;2024-02-28T00:57:23;20.23;;;9.32;;
67164;SDS011;54093;50.014;19.984;2024-02-28T01:06:44;15.27;;;10.13;;
67164;SDS011;54093;50.014;19.984;2024-02-28T01:16:05;16.08;;;9.35;;
67164;SDS011;54093;50.014;19.984;2024-02-28T01:25:26;15.25;;;9.02;;
67164;SDS011;54093;50.014;19.984;2024-02-28T01:34:47;21.08;;;12.13;;
67164;SDS011;54093;50.014;19.984;2024-02-28T01:44:08;14.18;;;8.75;;
67164;SDS011;54093;50.014;19.984;2024-02-28T01:53:29;18.25;;;9.45;;
67164;SDS011;54093;50.014;19.984;2024-02-28T02:02:50;21.70;;;11.38;;
67164;SDS011;54093;50.014;19.984;2024-02-28T02:12:11;19.70;;;11.30;;
67164;SDS011;54093;50.014;19.984;2024-02-28T02:21:37;24.92;;;10.73;;
67164;SDS011;54093;50.014;19.984;2024-02-28T02:31:08;18.58;;;11.20;;
67164;SDS011;54093;50.014;19.984;2024-02-28T02:40:29;24.77;;;10.52;;
67164;SDS011;54093;50.014;19.984;2024-02-28T02:49:50;21.00;;;12.07;;
67164;SDS011;54093;50.014;19.984;2024-02-28T02:59:11;19.02;;;10.35;;
67164;SDS011;54093;50.014;19.984;2024-02-28T03:08:32;21.10;;;10.98;;
67164;SDS011;54093;50.014;19.984;2024-02-28T03:17:53;20.15;;;12.30;;
67164;SDS011;54093;50.014;19.984;2024-02-28T03:27:14;20.38;;;10.07;;
67164;SDS011;54093;50.014;19.984;2024-02-28T03:36:35;19.90;;;12.85;;
67164;SDS011;54093;50.014;19.984;2024-02-28T03:45:57;21.88;;;13.15;;
67164;SDS011;54093;50.014;19.984;2024-02-28T03:55:18;20.15;;;10.65;;
67164;SDS011;54093;50.014;19.984;2024-02-28T04:04:39;21.98;;;11.88;;
67164;SDS011;54093;50.014;19.984;2024-02-28T04:14:00;19.25;;;11.23;;
67164;SDS011;54093;50.014;19.984;2024-02-28T04:23:21;15.95;;;10.80;;
67164;SDS011;54093;50.014;19.984;2024-02-28T04:32:42;18.42;;;11.50;;
67164;SDS011;54093;50.014;19.984;2024-02-28T04:42:03;13.73;;;10.35;;
67164;SDS011;54093;50.014;19.984;2024-02-28T04:51:24;24.88;;;11.25;;
67164;SDS011;54093;50.014;19.984;2024-02-28T05:00:45;34.78;;;15.35;;
67164;SDS011;54093;50.014;19.984;2024-02-28T05:10:06;16.80;;;11.18;;
67164;SDS011;54093;50.014;19.984;2024-02-28T05:19:28;24.33;;;12.18;;
67164;SDS011;54093;50.014;19.984;2024-02-28T05:28:49;27.50;;;13.90;;
67164;SDS011;54093;50.014;19.984;2024-02-28T05:38:10;36.45;;;16.52;;
67164;SDS011;54093;50.014;19.984;2024-02-28T05:47:31;30.08;;;16.35;;
67164;SDS011;54093;50.014;19.984;2024-02-28T05:56:52;30.35;;;15.38;;
67164;SDS011;54093;50.014;19.984;2024-02-28T06:06:13;31.40;;;15.32;;
67164;SDS011;54093;50.014;19.984;2024-02-28T06:15:34;22.25;;;13.68;;
67164;SDS011;54093;50.014;19.984;2024-02-28T06:24:55;30.58;;;15.95;;
67164;SDS011;54093;50.014;19.984;2024-02-28T06:34:16;31.85;;;15.82;;
67164;SDS011;54093;50.014;19.984;2024-02-28T06:43:37;32.58;;;17.23;;
67164;SDS011;54093;50.014;19.984;2024-02-28T06:52:58;25.65;;;14.68;;
67164;SDS011;54093;50.014;19.984;2024-02-28T07:02:20;27.90;;;15.32;;
67164;SDS011;54093;50.014;19.984;2024-02-28T07:11:41;26.75;;;14.48;;
67164;SDS011;54093;50.014;19.984;2024-02-28T07:21:02;25.02;;;12.95;;
67164;SDS011;54093;50.014;19.984;2024-02-28T07:30:23;24.33;;;14.25;;
67164;SDS011;54093;50.014;19.984;2024-02-28T07:39:44;42.20;;;16.98;;
67164;SDS011;54093;50.014;19.984;2024-02-28T07:49:05;43.25;;;17.15;;
67164;SDS011;54093;50.014;19.984;2024-02-28T07:58:26;28.40;;;17.80;;
67164;SDS011;54093;50.014;19.984;2024-02-28T08:07:47;44.72;;;17.77;;
67164;SDS011;54093;50.014;19.984;2024-02-28T08:17:08;33.17;;;17.23;;
67164;SDS011;54093;50.014;19.984;2024-02-28T08:26:29;33.55;;;16.38;;
67164;SDS011;54093;50.014;19.984;2024-02-28T08:35:50;37.15;;;17.05;;
67164;SDS011;54093;50.014;19.984;2024-02-28T08:45:12;53.60;;;23.90;;
67164;SDS011;54093;50.014;19.984;2024-02-28T08:54:33;38.28;;;18.17;;
67164;SDS011;54093;50.014;19.984;2024-02-28T09:03:54;39.42;;;17.77;;
67164;SDS011;54093;50.014;19.984;2024-02-28T09:13:15;48.38;;;18.73;;
67164;SDS011;54093;50.014;19.984;2024-02-28T09:22:36;38.13;;;17.55;;
67164;SDS011;54093;50.014;19.984;2024-02-28T09:31:57;37.95;;;20.17;;
67164;SDS011;54093;50.014;19.984;2024-02-28T09:41:18;40.97;;;14.07;;
67164;SDS011;54093;50.014;19.984;2024-02-28T09:50:40;40.58;;;19.30;;
67164;SDS011;54093;50.014;19.984;2024-02-28T10:00:02;33.95;;;14.95;;
67164;SDS011;54093;50.014;19.984;2024-02-28T10:09:23;40.70;;;20.33;;
67164;SDS011;54093;50.014;19.984;2024-02-28T10:18:45;36.40;;;20.42;;
67164;SDS011;54093;50.014;19.984;2024-02-28T10:28:06;30.38;;;15.95;;
67164;SDS011;54093;50.014;19.984;2024-02-28T10:37:30;39.00;;;15.88;;
67164;SDS011;54093;50.014;19.984;2024-02-28T10:46:53;34.58;;;18.70;;
67164;SDS011;54093;50.014;19.984;2024-02-28T10:56:14;42.47;;;22.00;;
67164;SDS011;54093;50.014;19.984;2024-02-28T11:05:37;34.88;;;16.17;;
67164;SDS011;54093;50.014;19.984;2024-02-28T11:14:59;55.63;;;19.25;;
67164;SDS011;54093;50.014;19.984;2024-02-28T11:24:29;28.23;;;13.68;;
67164;SDS011;54093;50.014;19.984;2024-02-28T11:33:51;30.05;;;16.13;;
67164;SDS011;54093;50.014;19.984;2024-02-28T11:43:12;34.47;;;15.77;;
67164;SDS011;54093;50.014;19.984;2024-02-28T11:52:33;37.92;;;16.00;;
67164;SDS011;54093;50.014;19.984;2024-02-28T12:01:55;50.42;;;20.23;;
67164;SDS011;54093;50.014;19.984;2024-02-28T12:11:18;33.92;;;14.57;;
67164;SDS011;54093;50.014;19.984;2024-02-28T12:20:39;27.50;;;14.77;;
67164;SDS011;54093;50.014;19.984;2024-02-28T12:30:00;25.45;;;13.80;;
67164;SDS011;54093;50.014;19.984;2024-02-28T12:39:22;41.40;;;17.60;;
67164;SDS011;54093;50.014;19.984;2024-02-28T12:48:43;24.73;;;12.48;;
67164;SDS011;54093;50.014;19.984;2024-02-28T12:58:04;33.08;;;13.93;;
67164;SDS011;54093;50.014;19.984;2024-02-28T13:07:26;37.80;;;16.73;;
67164;SDS011;54093;50.014;19.984;2024-02-28T13:16:47;28.73;;;13.07;;
67164;SDS011;54093;50.014;19.984;2024-02-28T13:26:09;24.48;;;12.88;;
67164;SDS011;54093;50.014;19.984;2024-02-28T13:35:38;33.83;;;13.38;;
67164;SDS011;54093;50.014;19.984;2024-02-28T13:44:59;17.60;;;12.02;;
67164;SDS011;54093;50.014;19.984;2024-02-28T13:54:20;24.90;;;11.63;;
67164;SDS011;54093;50.014;19.984;2024-02-28T14:03:41;14.05;;;9.88;;
67164;SDS011;54093;50.014;19.984;2024-02-28T14:13:02;10.95;;;8.43;;
67164;SDS011;54093;50.014;19.984;2024-02-28T14:22:24;14.98;;;9.05;;
67164;SDS011;54093;50.014;19.984;2024-02-28T14:31:46;21.60;;;8.23;;
67164;SDS011;54093;50.014;19.984;2024-02-28T14:41:07;9.00;;;6.68;;
67164;SDS011;54093;50.014;19.984;2024-02-28T14:50:28;8.65;;;7.45;;
67164;SDS011;54093;50.014;19.984;2024-02-28T14:59:49;18.13;;;8.38;;
67164;SDS011;54093;50.014;19.984;2024-02-28T15:09:10;22.23;;;11.68;;
67164;SDS011;54093;50.014;19.984;2024-02-28T15:18:31;34.30;;;13.35;;
67164;SDS011;54093;50.014;19.984;2024-02-28T15:27:53;37.08;;;16.52;;
67164;SDS011;54093;50.014;19.984;2024-02-28T15:37:14;41.92;;;17.25;;
67164;SDS011;54093;50.014;19.984;2024-02-28T15:46:35;32.33;;;17.60;;
67164;SDS011;54093;50.014;19.984;2024-02-28T15:55:58;46.92;;;20.60;;
67164;SDS011;54093;50.014;19.984;2024-02-28T16:05:19;45.95;;;21.67;;
67164;SDS011;54093;50.014;19.984;2024-02-28T16:14:44;43.77;;;21.67;;
67164;SDS011;54093;50.014;19.984;2024-02-28T16:24:05;52.88;;;26.38;;
67164;SDS011;54093;50.014;19.984;2024-02-28T16:33:26;45.13;;;21.70;;
67164;SDS011;54093;50.014;19.984;2024-02-28T16:42:47;44.58;;;21.45;;
67164;SDS011;54093;50.014;19.984;2024-02-28T16:52:09;56.35;;;31.10;;
67164;SDS011;54093;50.014;19.984;2024-02-28T17:01:32;58.80;;;26.88;;
67164;SDS011;54093;50.014;19.984;2024-02-28T17:10:55;76.28;;;36.67;;
67164;SDS011;54093;50.014;19.984;2024-02-28T17:20:16;84.22;;;30.45;;
67164;SDS011;54093;50.014;19.984;2024-02-28T17:29:39;93.80;;;35.85;;
67164;SDS011;54093;50.014;19.984;2024-02-28T17:39:00;86.53;;;33.50;;
67164;SDS011;54093;50.014;19.984;2024-02-28T17:48:21;120.18;;;46.35;;
67164;SDS011;54093;50.014;19.984;2024-02-28T17:57:42;94.25;;;34.42;;
67164;SDS011;54093;50.014;19.984;2024-02-28T18:07:03;128.18;;;46.03;;
67164;SDS011;54093;50.014;19.984;2024-02-28T18:16:24;97.40;;;36.20;;
67164;SDS011;54093;50.014;19.984;2024-02-28T18:25:45;87.22;;;31.95;;
67164;SDS011;54093;50.014;19.984;2024-02-28T18:35:06;101.05;;;36.83;;
67164;SDS011;54093;50.014;19.984;2024-02-28T18:44:28;97.68;;;34.78;;
67164;SDS011;54093;50.014;19.984;2024-02-28T18:53:49;81.30;;;32.67;;
67164;SDS011;54093;50.014;19.984;2024-02-28T19:03:10;104.55;;;36.47;;
67164;SDS011;54093;50.014;19.984;2024-02-28T19:12:31;97.63;;;34.65;;
67164;SDS011;54093;50.014;19.984;2024-02-28T19:21:52;103.15;;;36.22;;
67164;SDS011;54093;50.014;19.984;2024-02-28T19:31:13;70.85;;;30.95;;
67164;SDS011;54093;50.014;19.984;2024-02-28T19:40:34;99.25;;;34.10;;
67164;SDS011;54093;50.014;19.984;2024-02-28T19:49:55;87.18;;;31.27;;
67164;SDS011;54093;50.014;19.984;2024-02-28T19:59:20;87.90;;;33.72;;
67164;SDS011;54093;50.014;19.984;2024-02-28T20:08:41;86.45;;;28.23;;
67164;SDS011;54093;50.014;19.984;2024-02-28T20:18:02;101.43;;;40.58;;
67164;SDS011;54093;50.014;19.984;2024-02-28T20:27:25;81.53;;;30.83;;
67164;SDS011;54093;50.014;19.984;2024-02-28T20:36:46;105.20;;;41.67;;
67164;SDS011;54093;50.014;19.984;2024-02-28T20:46:07;60.58;;;26.63;;
67164;SDS011;54093;50.014;19.984;2024-02-28T20:55:29;80.70;;;30.98;;
67164;SDS011;54093;50.014;19.984;2024-02-28T21:04:51;92.93;;;31.38;;
67164;SDS011;54093;50.014;19.984;2024-02-28T21:14:12;80.70;;;29.77;;
67164;SDS011;54093;50.014;19.984;2024-02-28T21:23:33;88.55;;;30.77;;
67164;SDS011;54093;50.014;19.984;2024-02-28T21:32:54;101.70;;;34.75;;
67164;SDS011;54093;50.014;19.984;2024-02-28T21:42:15;117.18;;;40.80;;
67164;SDS011;54093;50.014;19.984;2024-02-28T21:51:36;109.35;;;42.13;;
67164;SDS011;54093;50.014;19.984;2024-02-28T22:00:57;79.32;;;29.52;;
67164;SDS011;54093;50.014;19.984;2024-02-28T22:10:18;88.00;;;31.98;;
67164;SDS011;54093;50.014;19.984;2024-02-28T22:19:39;85.50;;;31.98;;
67164;SDS011;54093;50.014;19.984;2024-02-28T22:29:00;91.32;;;30.02;;
67164;SDS011;54093;50.014;19.984;2024-02-28T22:38:21;97.88;;;31.42;;
67164;SDS011;54093;50.014;19.984;2024-02-28T22:47:43;95.07;;;30.58;;
67164;SDS011;54093;50.014;19.984;2024-02-28T22:57:04;96.35;;;31.27;;
67164;SDS011;54093;50.014;19.984;2024-02-28T23:06:25;90.22;;;30.98;;
67164;SDS011;54093;50.014;19.984;2024-02-28T23:15:46;96.55;;;33.33;;
67164;SDS011;54093;50.014;19.984;2024-02-28T23:25:07;107.85;;;36.35;;
67164;SDS011;54093;50.014;19.984;2024-02-28T23:34:28;82.72;;;28.17;;
67164;SDS011;54093;50.014;19.984;2024-02-28T23:43:49;82.05;;;26.70;;
67164;SDS011;54093;50.014;19.984;2024-02-28T23:53:10;46.05;;;17.27;;
